createdAt,value
2023-04-04T00:00:39.893Z,100.00
2023-04-04T00:03:09.546Z,100.00
2023-04-04T00:05:37.121Z,100.00
2023-04-04T00:08:04.593Z,100.00
2023-04-04T00:10:36.857Z,100.00
2023-04-04T00:13:05.770Z,100.00
2023-04-04T00:15:34.643Z,100.00
2023-04-04T00:18:04.034Z,100.00
2023-04-04T00:20:31.809Z,100.00
2023-04-04T00:22:59.094Z,100.00
2023-04-04T00:25:26.339Z,100.00
2023-04-04T00:27:53.769Z,100.00
2023-04-04T00:30:21.069Z,100.00
2023-04-04T00:32:48.840Z,100.00
2023-04-04T00:35:16.168Z,100.00
2023-04-04T00:37:45.375Z,100.00
2023-04-04T00:40:12.932Z,100.00
2023-04-04T00:42:40.576Z,100.00
2023-04-04T00:45:08.464Z,100.00
2023-04-04T00:47:35.957Z,100.00
2023-04-04T00:50:04.303Z,100.00
2023-04-04T00:52:31.793Z,100.00
2023-04-04T00:54:59.161Z,100.00
2023-04-04T00:57:28.725Z,100.00
2023-04-04T00:59:57.557Z,100.00
2023-04-04T01:02:25.129Z,100.00
2023-04-04T01:04:53.457Z,100.00
2023-04-04T01:07:25.124Z,100.00
2023-04-04T01:09:57.274Z,100.00
2023-04-04T01:12:24.602Z,100.00
2023-04-04T01:14:51.846Z,100.00
2023-04-04T01:17:19.070Z,100.00
2023-04-04T01:20:09.117Z,100.00
2023-04-04T01:22:37.376Z,100.00
2023-04-04T01:25:04.992Z,100.00
2023-04-04T01:27:32.563Z,100.00
2023-04-04T01:30:00.501Z,100.00
2023-04-04T01:32:33.268Z,100.00
2023-04-04T01:35:37.062Z,100.00
2023-04-04T01:38:22.958Z,100.00
2023-04-04T01:40:52.543Z,100.00
2023-04-04T01:43:20.086Z,100.00
2023-04-04T01:45:48.742Z,100.00
2023-04-04T01:48:16.798Z,100.00
2023-04-04T01:50:44.668Z,100.00
2023-04-04T01:53:12.182Z,100.00
2023-04-04T01:55:40.372Z,100.00
2023-04-04T01:58:07.631Z,100.00
2023-04-04T02:00:34.868Z,100.00
2023-04-04T02:03:02.716Z,100.00
2023-04-04T02:05:30.156Z,100.00
2023-04-04T02:07:58.080Z,100.00
2023-04-04T02:10:25.401Z,100.00
2023-04-04T02:12:53.429Z,100.00
2023-04-04T02:15:20.756Z,100.00
2023-04-04T02:17:49.125Z,100.00
2023-04-04T02:20:18.632Z,100.00
2023-04-04T02:22:55.743Z,100.00
2023-04-04T02:25:24.214Z,100.00
2023-04-04T02:27:51.655Z,100.00
2023-04-04T02:30:19.589Z,100.00
2023-04-04T02:32:49.034Z,100.00
2023-04-04T02:35:19.238Z,100.00
2023-04-04T02:37:47.418Z,100.00
2023-04-04T02:40:14.968Z,100.00
2023-04-04T02:42:44.101Z,100.00
2023-04-04T02:45:12.049Z,100.00
2023-04-04T02:47:39.543Z,100.00
2023-04-04T02:50:08.122Z,100.00
2023-04-04T02:52:35.420Z,100.00
2023-04-04T02:55:02.917Z,100.00
2023-04-04T02:57:30.690Z,100.00
2023-04-04T02:59:57.981Z,100.00
2023-04-04T03:02:26.083Z,100.00
2023-04-04T03:04:53.849Z,100.00
2023-04-04T03:07:22.813Z,100.00
2023-04-04T03:09:50.151Z,100.00
2023-04-04T03:12:20.569Z,100.00
2023-04-04T03:14:50.072Z,100.00
2023-04-04T03:17:18.355Z,100.00
2023-04-04T03:19:45.859Z,100.00
2023-04-04T03:22:13.048Z,100.00
2023-04-04T03:24:40.378Z,100.00
2023-04-04T03:27:11.281Z,100.00
2023-04-04T03:29:40.495Z,100.00
2023-04-04T03:32:07.931Z,100.00
2023-04-04T03:34:35.304Z,100.00
2023-04-04T03:37:05.311Z,100.00
2023-04-04T03:39:33.245Z,100.00
2023-04-04T03:42:00.481Z,100.00
2023-04-04T03:44:27.864Z,100.00
2023-04-04T03:46:55.273Z,100.00
2023-04-04T03:49:27.275Z,100.00
2023-04-04T03:51:55.033Z,100.00
2023-04-04T03:54:22.542Z,100.00
2023-04-04T03:56:49.791Z,100.00
2023-04-04T03:59:18.197Z,100.00
2023-04-04T04:01:45.615Z,100.00
2023-04-04T04:04:12.970Z,100.00
2023-04-04T04:06:40.786Z,100.00
2023-04-04T04:09:08.224Z,100.00
2023-04-04T04:11:36.481Z,100.00
2023-04-04T04:14:04.062Z,100.00
2023-04-04T04:16:32.964Z,100.00
2023-04-04T04:19:02.010Z,100.00
2023-04-04T04:21:29.486Z,100.00
2023-04-04T04:23:56.721Z,100.00
2023-04-04T04:26:24.164Z,100.00
2023-04-04T04:28:51.617Z,100.00
2023-04-04T04:31:18.852Z,100.00
2023-04-04T04:33:46.120Z,100.00
2023-04-04T04:36:16.281Z,100.00
2023-04-04T04:38:44.171Z,100.00
2023-04-04T04:41:11.521Z,100.00
2023-04-04T04:43:40.378Z,100.00
2023-04-04T04:46:08.800Z,100.00
2023-04-04T04:48:38.139Z,100.00
2023-04-04T04:51:05.886Z,100.00
2023-04-04T04:53:33.362Z,100.00
2023-04-04T04:56:03.648Z,100.00
2023-04-04T04:58:32.421Z,100.00
2023-04-04T05:00:59.797Z,100.00
2023-04-04T05:03:28.671Z,100.00
2023-04-04T05:05:56.179Z,100.00
2023-04-04T05:08:24.038Z,100.00
2023-04-04T05:10:52.792Z,100.00
2023-04-04T05:13:21.162Z,100.00
2023-04-04T05:15:48.557Z,100.00
2023-04-04T05:18:19.687Z,100.00
2023-04-04T05:20:53.827Z,100.00
2023-04-04T05:23:21.398Z,100.00
2023-04-04T05:25:50.796Z,100.00
2023-04-04T05:28:18.088Z,100.00
2023-04-04T05:30:45.720Z,100.00
2023-04-04T05:33:29.859Z,100.00
2023-04-04T05:35:59.405Z,100.00
2023-04-04T05:38:27.952Z,100.00
2023-04-04T05:40:55.991Z,100.00
2023-04-04T05:43:23.843Z,100.00
2023-04-04T05:45:57.035Z,100.00
2023-04-04T05:48:24.274Z,100.00
2023-04-04T05:50:51.835Z,100.00
2023-04-04T05:53:19.584Z,100.00
2023-04-04T05:55:46.947Z,100.00
2023-04-04T05:58:17.502Z,100.00
2023-04-04T06:00:45.275Z,100.00
2023-04-04T06:03:13.980Z,100.00
2023-04-04T06:05:43.471Z,100.00
2023-04-04T06:08:11.368Z,100.00
2023-04-04T06:10:38.938Z,100.00
2023-04-04T06:13:06.418Z,100.00
2023-04-04T06:15:33.847Z,100.00
2023-04-04T06:18:01.339Z,100.00
2023-04-04T06:20:31.896Z,100.00
2023-04-04T06:23:02.113Z,100.00
2023-04-04T06:25:29.433Z,100.00
2023-04-04T06:27:56.865Z,100.00
2023-04-04T06:30:24.442Z,100.00
2023-04-04T06:32:53.082Z,100.00
2023-04-04T06:35:21.038Z,100.00
2023-04-04T06:37:48.795Z,100.00
2023-04-04T06:40:16.301Z,100.00
2023-04-04T06:42:50.570Z,100.00
2023-04-04T06:45:18.025Z,100.00
2023-04-04T06:47:46.650Z,100.00
2023-04-04T06:50:14.064Z,100.00
2023-04-04T06:52:44.737Z,100.00
2023-04-04T06:55:13.225Z,100.00
2023-04-04T06:57:43.725Z,100.00
2023-04-04T07:00:11.629Z,100.00
2023-04-04T07:02:47.657Z,100.00
2023-04-04T07:05:17.909Z,100.00
2023-04-04T07:07:47.036Z,100.00
2023-04-04T07:10:14.851Z,100.00
2023-04-04T07:12:43.282Z,100.00
2023-04-04T07:15:13.931Z,100.00
2023-04-04T07:17:41.796Z,100.00
2023-04-04T07:20:09.333Z,100.00
2023-04-04T07:22:40.112Z,100.00
2023-04-04T07:25:13.557Z,100.00
2023-04-04T07:27:41.195Z,100.00
2023-04-04T07:30:08.925Z,100.00
2023-04-04T07:33:02.057Z,100.00
2023-04-04T07:35:29.711Z,100.00
2023-04-04T07:37:58.046Z,100.00
2023-04-04T07:40:27.288Z,100.00
2023-04-04T07:42:54.694Z,100.00
2023-04-04T07:45:24.757Z,100.00
2023-04-04T07:47:52.252Z,100.00
2023-04-04T07:50:20.869Z,100.00
2023-04-04T07:52:51.350Z,100.00
2023-04-04T07:55:19.773Z,99.70
2023-04-04T07:57:47.657Z,100.00
2023-04-04T08:00:19.270Z,96.08
2023-04-04T08:03:06.512Z,92.20
2023-04-04T08:05:34.481Z,92.74
2023-04-04T08:08:02.134Z,95.28
2023-04-04T08:10:29.914Z,94.77
2023-04-04T08:12:57.347Z,95.96
2023-04-04T08:15:24.576Z,88.53
2023-04-04T08:17:56.186Z,86.65
2023-04-04T08:20:23.762Z,84.03
2023-04-04T08:22:51.015Z,83.20
2023-04-04T08:25:18.591Z,82.69
2023-04-04T08:27:46.108Z,84.88
2023-04-04T08:30:14.401Z,83.02
2023-04-04T08:33:03.885Z,82.45
2023-04-04T08:35:32.909Z,83.94
2023-04-04T08:38:06.083Z,84.03
2023-04-04T08:40:34.889Z,84.36
2023-04-04T08:43:02.353Z,83.26
2023-04-04T08:45:30.746Z,86.21
2023-04-04T08:47:59.349Z,91.13
2023-04-04T08:50:27.651Z,90.31
2023-04-04T08:52:55.283Z,88.73
2023-04-04T08:55:22.631Z,88.05
2023-04-04T08:57:49.900Z,86.30
2023-04-04T09:00:18.123Z,80.83
2023-04-04T09:02:50.209Z,79.14
2023-04-04T09:05:18.324Z,80.18
2023-04-04T09:07:46.307Z,79.50
2023-04-04T09:10:14.110Z,78.94
2023-04-04T09:12:43.098Z,77.41
2023-04-04T09:15:13.646Z,76.53
2023-04-04T09:17:41.626Z,76.27
2023-04-04T09:20:37.459Z,74.55
2023-04-04T09:23:06.503Z,75.11
2023-04-04T09:25:34.415Z,73.39
2023-04-04T09:28:05.092Z,72.34
2023-04-04T09:30:33.966Z,71.30
2023-04-04T09:33:05.952Z,72.75
2023-04-04T09:35:34.322Z,64.57
2023-04-04T09:38:02.628Z,67.15
2023-04-04T09:40:30.617Z,66.28
2023-04-04T09:43:02.000Z,64.78
2023-04-04T09:45:34.841Z,64.08
2023-04-04T09:48:02.853Z,61.29
2023-04-04T09:50:30.500Z,59.08
2023-04-04T09:52:59.436Z,58.05
2023-04-04T09:55:34.217Z,55.24
2023-04-04T09:58:11.609Z,51.31
2023-04-04T10:00:45.277Z,50.67
2023-04-04T10:03:14.901Z,52.23
2023-04-04T10:05:42.541Z,50.30
2023-04-04T10:08:18.181Z,52.10
2023-04-04T10:11:02.607Z,50.86
2023-04-04T10:13:40.629Z,51.27
2023-04-04T10:16:09.519Z,50.00
2023-04-04T10:18:37.174Z,44.51
2023-04-04T10:21:15.422Z,42.45
2023-04-04T10:23:46.456Z,42.85
2023-04-04T10:26:14.058Z,40.56
2023-04-04T10:28:44.422Z,40.14
2023-04-04T10:31:23.687Z,41.39
2023-04-04T10:34:06.409Z,37.28
2023-04-04T10:36:49.565Z,37.81
2023-04-04T10:39:28.728Z,38.04
2023-04-04T10:41:56.629Z,36.47
2023-04-04T10:44:29.426Z,36.38
2023-04-04T10:46:58.713Z,37.36
2023-04-04T10:49:26.205Z,37.62
2023-04-04T10:51:56.728Z,35.68
2023-04-04T10:54:26.109Z,35.45
2023-04-04T10:56:54.068Z,35.17
2023-04-04T10:59:21.993Z,34.47
2023-04-04T11:01:59.959Z,33.58
2023-04-04T11:04:39.190Z,33.94
2023-04-04T11:07:06.554Z,33.80
2023-04-04T11:10:16.317Z,32.98
2023-04-04T11:12:47.605Z,33.10
2023-04-04T11:15:15.161Z,32.17
2023-04-04T11:17:58.820Z,33.25
2023-04-04T11:20:36.575Z,36.02
2023-04-04T11:23:05.365Z,36.36
2023-04-04T11:25:37.512Z,37.85
2023-04-04T11:28:07.092Z,37.73
2023-04-04T11:30:48.656Z,37.57
2023-04-04T11:33:29.173Z,36.70
2023-04-04T11:35:58.957Z,38.21
2023-04-04T11:38:27.034Z,38.06
2023-04-04T11:40:54.877Z,39.01
2023-04-04T11:43:23.821Z,39.70
2023-04-04T11:45:51.315Z,40.49
2023-04-04T11:48:20.673Z,42.49
2023-04-04T11:50:51.443Z,41.39
2023-04-04T11:53:18.722Z,41.75
2023-04-04T11:55:50.170Z,41.72
2023-04-04T11:58:18.262Z,41.56
2023-04-04T12:00:47.872Z,42.66
2023-04-04T12:03:17.171Z,42.46
2023-04-04T12:05:44.782Z,43.42
2023-04-04T12:08:12.492Z,44.32
2023-04-04T12:10:41.018Z,45.41
2023-04-04T12:13:09.296Z,44.94
2023-04-04T12:15:37.854Z,46.63
2023-04-04T12:18:08.779Z,46.44
2023-04-04T12:20:41.106Z,45.56
2023-04-04T12:23:10.192Z,45.77
2023-04-04T12:25:40.228Z,46.97
2023-04-04T12:28:08.236Z,48.04
2023-04-04T12:30:36.075Z,47.72
2023-04-04T12:33:03.490Z,48.58
2023-04-04T12:35:33.424Z,46.58
2023-04-04T12:38:06.240Z,46.76
2023-04-04T12:40:37.675Z,44.82
2023-04-04T12:43:05.567Z,45.23
2023-04-04T12:45:36.524Z,45.63
2023-04-04T12:48:03.953Z,45.68
2023-04-04T12:50:31.443Z,43.61
2023-04-04T12:53:18.446Z,43.12
2023-04-04T12:55:48.785Z,43.08
2023-04-04T12:58:22.557Z,41.71
2023-04-04T13:00:54.520Z,42.82
2023-04-04T13:03:24.417Z,43.23
2023-04-04T13:05:53.812Z,43.48
2023-04-04T13:08:21.461Z,44.05
2023-04-04T13:10:59.028Z,44.24
2023-04-04T13:13:36.678Z,44.28
2023-04-04T13:16:11.910Z,43.10
2023-04-04T13:18:43.501Z,42.82
2023-04-04T13:21:11.795Z,43.33
2023-04-04T13:23:40.457Z,41.17
2023-04-04T13:26:09.391Z,41.68
2023-04-04T13:28:36.891Z,41.93
2023-04-04T13:31:10.016Z,42.23
2023-04-04T13:33:38.920Z,43.55
2023-04-04T13:36:06.340Z,44.53
2023-04-04T13:38:37.147Z,45.66
2023-04-04T13:41:04.437Z,46.32
2023-04-04T13:43:35.405Z,46.88
2023-04-04T13:46:02.754Z,47.99
2023-04-04T13:48:31.263Z,47.39
2023-04-04T13:50:59.129Z,48.46
2023-04-04T13:53:26.758Z,48.17
2023-04-04T13:56:16.980Z,49.40
2023-04-04T13:58:44.946Z,51.55
2023-04-04T14:01:12.544Z,51.46
2023-04-04T14:03:40.975Z,53.08
2023-04-04T14:08:55.750Z,55.75
2023-04-04T14:11:24.327Z,54.95
2023-04-04T14:13:52.258Z,55.38
2023-04-04T14:16:19.585Z,58.28
2023-04-04T14:18:49.134Z,59.05
2023-04-04T14:21:16.738Z,62.18
2023-04-04T14:23:44.022Z,61.98
2023-04-04T14:26:13.704Z,64.59
2023-04-04T14:28:42.109Z,62.42
2023-04-04T14:31:09.427Z,62.80
2023-04-04T14:33:37.036Z,64.58
2023-04-04T14:36:04.409Z,63.87
2023-04-04T14:38:31.937Z,65.12
2023-04-04T14:41:00.306Z,64.98
2023-04-04T14:43:27.662Z,64.40
2023-04-04T14:45:55.017Z,64.03
2023-04-04T14:48:22.694Z,65.38
2023-04-04T14:50:49.955Z,66.19
2023-04-04T14:53:17.412Z,68.07
2023-04-04T14:55:44.629Z,68.11
2023-04-04T14:58:12.518Z,67.07
2023-04-04T15:00:40.737Z,66.93
2023-04-04T15:03:12.446Z,70.94
2023-04-04T15:05:42.552Z,70.74
2023-04-04T15:08:10.433Z,71.84
2023-04-04T15:10:38.071Z,71.17
2023-04-04T15:13:13.936Z,72.25
2023-04-04T15:15:41.745Z,72.70
2023-04-04T15:18:09.357Z,73.67
2023-04-04T15:20:41.874Z,75.07
2023-04-04T15:23:09.747Z,75.11
2023-04-04T15:25:37.010Z,75.71
2023-04-04T15:28:05.684Z,78.92
2023-04-04T15:30:33.630Z,79.55
2023-04-04T15:33:01.601Z,78.89
2023-04-04T15:35:29.117Z,81.22
2023-04-04T15:37:56.336Z,80.03
2023-04-04T15:40:23.570Z,80.68
2023-04-04T15:42:51.624Z,81.07
2023-04-04T15:45:19.968Z,81.50
2023-04-04T15:47:47.332Z,82.36
2023-04-04T15:50:14.833Z,81.47
2023-04-04T15:52:43.347Z,80.39
2023-04-04T15:55:12.445Z,82.88
2023-04-04T15:57:42.712Z,81.72
2023-04-04T16:00:10.984Z,82.43
2023-04-04T16:02:39.180Z,83.18
2023-04-04T16:05:07.079Z,84.37
2023-04-04T16:07:34.365Z,84.26
2023-04-04T16:10:03.587Z,84.39
2023-04-04T16:12:31.177Z,85.75
2023-04-04T16:14:58.606Z,85.48
2023-04-04T16:17:26.224Z,87.98
2023-04-04T16:19:54.091Z,89.89
2023-04-04T16:22:21.390Z,90.24
2023-04-04T16:24:50.016Z,89.09
2023-04-04T16:27:17.287Z,89.60
2023-04-04T16:29:44.970Z,90.93
2023-04-04T16:32:12.556Z,90.36
2023-04-04T16:34:40.047Z,90.33
2023-04-04T16:37:09.729Z,90.59
2023-04-04T16:39:37.101Z,91.22
2023-04-04T16:42:04.359Z,91.46
2023-04-04T16:44:34.792Z,92.08
2023-04-04T16:47:02.209Z,91.92
2023-04-04T16:49:30.850Z,90.04
2023-04-04T16:51:58.613Z,90.80
2023-04-04T16:54:26.140Z,90.56
2023-04-04T16:56:54.538Z,90.63
2023-04-04T16:59:22.006Z,89.75
2023-04-04T17:01:49.321Z,91.05
2023-04-04T17:04:16.721Z,92.02
2023-04-04T17:06:44.656Z,92.93
2023-04-04T17:09:11.954Z,92.61
2023-04-04T17:11:44.933Z,92.63
2023-04-04T17:14:12.818Z,92.55
2023-04-04T17:16:40.650Z,92.33
2023-04-04T17:19:07.980Z,92.48
2023-04-04T17:21:35.584Z,94.81
2023-04-04T17:24:02.848Z,94.68
2023-04-04T17:26:30.312Z,94.03
2023-04-04T17:28:57.642Z,94.60
2023-04-04T17:31:24.985Z,95.99
2023-04-04T17:33:52.241Z,96.43
2023-04-04T17:36:20.007Z,96.61
2023-04-04T17:38:48.141Z,97.55
2023-04-04T17:41:15.651Z,97.38
2023-04-04T17:43:43.226Z,98.90
2023-04-04T17:46:10.530Z,99.61
2023-04-04T17:48:37.879Z,100.00
2023-04-04T17:51:07.057Z,100.00
2023-04-04T17:53:35.817Z,100.00
2023-04-04T17:56:06.250Z,100.00
2023-04-04T17:58:33.517Z,100.00
2023-04-04T18:01:04.128Z,100.00
2023-04-04T18:03:32.179Z,100.00
2023-04-04T18:05:59.820Z,100.00
2023-04-04T18:08:27.055Z,100.00
2023-04-04T18:10:54.363Z,100.00
2023-04-04T18:13:24.546Z,100.00
2023-04-04T18:15:52.570Z,100.00
2023-04-04T18:18:22.899Z,100.00
2023-04-04T18:20:50.195Z,100.00
2023-04-04T18:23:17.606Z,100.00
2023-04-04T18:25:44.945Z,100.00
2023-04-04T18:28:15.087Z,100.00
2023-04-04T18:30:43.297Z,100.00
2023-04-04T18:33:11.773Z,100.00
2023-04-04T18:35:40.392Z,100.00
2023-04-04T18:38:07.720Z,100.00
2023-04-04T18:40:37.001Z,100.00
2023-04-04T18:43:04.334Z,100.00
2023-04-04T18:45:39.494Z,100.00
2023-04-04T18:48:08.668Z,100.00
2023-04-04T18:50:36.661Z,100.00
2023-04-04T18:53:03.931Z,100.00
2023-04-04T18:55:34.623Z,100.00
2023-04-04T18:58:02.074Z,100.00
2023-04-04T19:00:29.516Z,100.00
2023-04-04T19:02:58.000Z,100.00
2023-04-04T19:05:25.820Z,100.00
2023-04-04T19:07:56.126Z,100.00
2023-04-04T19:10:23.392Z,100.00
2023-04-04T19:12:56.873Z,100.00
2023-04-04T19:15:24.317Z,100.00
2023-04-04T19:17:51.640Z,100.00
2023-04-04T19:20:19.039Z,100.00
2023-04-04T19:22:46.421Z,100.00
2023-04-04T19:25:13.648Z,100.00
2023-04-04T19:27:40.878Z,100.00
2023-04-04T19:30:33.662Z,100.00
2023-04-04T19:33:03.120Z,100.00
2023-04-04T19:35:52.665Z,100.00
2023-04-04T19:38:45.410Z,100.00
2023-04-04T19:41:33.691Z,100.00
2023-04-04T19:44:01.915Z,100.00
2023-04-04T19:46:32.687Z,100.00
2023-04-04T19:49:02.977Z,100.00
2023-04-04T19:51:35.949Z,100.00
2023-04-04T19:54:03.213Z,100.00
2023-04-04T19:56:31.169Z,100.00
2023-04-04T19:59:05.211Z,100.00
2023-04-04T20:01:34.892Z,100.00
2023-04-04T20:04:09.296Z,100.00
2023-04-04T20:06:38.803Z,100.00
2023-04-04T20:09:31.678Z,100.00
2023-04-04T20:11:59.157Z,100.00
2023-04-04T20:14:27.169Z,100.00
2023-04-04T20:16:54.656Z,100.00
2023-04-04T20:19:29.947Z,100.00
2023-04-04T20:21:57.892Z,100.00
2023-04-04T20:24:25.566Z,100.00
2023-04-04T20:26:59.947Z,100.00
2023-04-04T20:29:31.121Z,100.00
2023-04-04T20:32:03.582Z,100.00
2023-04-04T20:34:41.294Z,100.00
2023-04-04T20:37:23.579Z,100.00
2023-04-04T20:40:20.439Z,100.00
2023-04-04T20:42:51.598Z,100.00
2023-04-04T20:45:28.173Z,100.00
2023-04-04T20:48:00.694Z,100.00
2023-04-04T20:50:28.220Z,100.00
2023-04-04T20:52:59.874Z,100.00
2023-04-04T20:55:32.977Z,100.00
2023-04-04T20:58:09.841Z,100.00
2023-04-04T21:00:41.448Z,100.00
2023-04-04T21:03:33.565Z,100.00
2023-04-04T21:06:16.014Z,100.00
2023-04-04T21:08:50.580Z,100.00
2023-04-04T21:11:28.810Z,100.00
2023-04-04T21:13:56.380Z,100.00
2023-04-04T21:16:27.279Z,100.00
2023-04-04T21:19:01.432Z,100.00
2023-04-04T21:21:29.250Z,100.00
2023-04-04T21:23:57.643Z,100.00
2023-04-04T21:26:36.891Z,100.00
2023-04-04T21:29:24.828Z,100.00
2023-04-04T21:31:53.447Z,100.00
2023-04-04T21:34:25.031Z,100.00
2023-04-04T21:36:55.971Z,100.00
2023-04-04T21:39:29.650Z,100.00
2023-04-04T21:42:01.575Z,100.00
2023-04-04T21:44:30.347Z,100.00
2023-04-04T21:46:59.071Z,100.00
2023-04-04T21:49:27.712Z,100.00
2023-04-04T21:51:55.448Z,100.00
2023-04-04T21:54:23.009Z,100.00
2023-04-04T21:56:50.204Z,100.00
2023-04-04T21:59:17.927Z,100.00
2023-04-04T22:01:45.378Z,100.00
2023-04-04T22:04:13.883Z,100.00
2023-04-04T22:06:41.253Z,100.00
2023-04-04T22:09:08.514Z,100.00
2023-04-04T22:11:41.957Z,100.00
2023-04-04T22:14:09.812Z,100.00
2023-04-04T22:16:39.662Z,100.00
2023-04-04T22:19:07.760Z,100.00
2023-04-04T22:21:37.180Z,100.00
2023-04-04T22:24:06.099Z,100.00
2023-04-04T22:26:34.143Z,100.00
2023-04-04T22:29:03.069Z,100.00
2023-04-04T22:31:34.596Z,100.00
2023-04-04T22:34:03.776Z,100.00
2023-04-04T22:36:31.326Z,100.00
2023-04-04T22:38:58.733Z,100.00
2023-04-04T22:41:27.502Z,100.00
2023-04-04T22:43:56.764Z,100.00
2023-04-04T22:46:25.846Z,100.00
2023-04-04T22:49:06.382Z,100.00
2023-04-04T22:51:45.890Z,100.00
2023-04-04T22:54:16.082Z,100.00
2023-04-04T22:56:43.739Z,100.00
2023-04-04T22:59:12.850Z,100.00
2023-04-04T23:01:41.064Z,100.00
2023-04-04T23:04:09.476Z,100.00
2023-04-04T23:06:38.436Z,100.00
2023-04-04T23:09:07.593Z,100.00
2023-04-04T23:11:35.156Z,100.00
2023-04-04T23:14:02.749Z,100.00
2023-04-04T23:16:30.919Z,100.00
2023-04-04T23:18:58.240Z,100.00
2023-04-04T23:21:31.427Z,100.00
2023-04-04T23:23:59.086Z,100.00
2023-04-04T23:26:27.315Z,100.00
2023-04-04T23:28:56.771Z,100.00
2023-04-04T23:31:25.746Z,100.00
2023-04-04T23:33:54.996Z,100.00
2023-04-04T23:36:22.378Z,100.00
2023-04-04T23:38:49.701Z,100.00
2023-04-04T23:41:18.392Z,100.00
2023-04-04T23:43:46.182Z,100.00
2023-04-04T23:46:14.405Z,100.00
2023-04-04T23:48:42.165Z,100.00
2023-04-04T23:51:11.023Z,100.00
2023-04-04T23:53:39.156Z,100.00
2023-04-04T23:56:06.773Z,100.00
2023-04-04T23:58:34.631Z,100.00
